createdAt,value
2019-02-22T00:01:58.096Z,2.50
2019-02-22T00:04:25.486Z,2.45
2019-02-22T00:06:52.829Z,2.64
2019-02-22T00:09:20.196Z,2.90
2019-02-22T00:11:47.553Z,2.68
2019-02-22T00:14:14.872Z,2.47
2019-02-22T00:16:42.193Z,2.57
2019-02-22T00:19:09.574Z,2.73
2019-02-22T00:21:36.933Z,2.70
2019-02-22T00:24:04.237Z,2.41
2019-02-22T00:26:31.613Z,2.60
2019-02-22T00:28:58.991Z,2.96
2019-02-22T00:31:26.361Z,2.72
2019-02-22T00:33:53.697Z,2.52
2019-02-22T00:36:21.140Z,2.57
2019-02-22T00:38:48.534Z,2.49
2019-02-22T00:41:15.873Z,2.60
2019-02-22T00:43:43.193Z,2.60
2019-02-22T00:46:10.593Z,2.58
2019-02-22T00:48:37.941Z,2.44
2019-02-22T00:51:05.274Z,2.53
2019-02-22T00:53:32.628Z,2.86
2019-02-22T00:55:59.969Z,2.57
2019-02-22T00:58:27.306Z,2.33
2019-02-22T01:00:54.693Z,2.46
2019-02-22T01:03:22.035Z,2.67
2019-02-22T01:05:49.433Z,2.90
2019-02-22T01:08:16.815Z,3.15
2019-02-22T01:10:44.187Z,2.75
2019-02-22T01:13:11.506Z,2.58
2019-02-22T01:15:38.894Z,2.45
2019-02-22T01:18:06.233Z,2.39
2019-02-22T01:20:34.223Z,2.37
2019-02-22T01:23:01.576Z,2.33
2019-02-22T01:25:28.934Z,2.31
2019-02-22T01:27:56.333Z,2.61
2019-02-22T01:30:23.684Z,3.01
2019-02-22T01:32:51.058Z,2.87
2019-02-22T01:35:18.407Z,2.58
2019-02-22T01:37:45.777Z,2.37
2019-02-22T01:40:13.173Z,2.41
2019-02-22T01:42:40.530Z,2.37
2019-02-22T01:45:07.857Z,2.37
2019-02-22T01:47:35.212Z,2.62
2019-02-22T01:50:02.570Z,2.34
2019-02-22T01:52:29.927Z,2.28
2019-02-22T01:54:57.294Z,2.46
2019-02-22T01:57:24.622Z,2.31
2019-02-22T01:59:51.966Z,2.19
2019-02-22T02:02:19.295Z,1.97
2019-02-22T02:04:46.632Z,2.02
2019-02-22T02:07:14.004Z,2.06
2019-02-22T02:09:41.353Z,2.14
2019-02-22T02:12:08.694Z,2.21
2019-02-22T02:14:36.093Z,2.23
2019-02-22T02:17:03.614Z,2.16
2019-02-22T02:19:30.948Z,2.30
2019-02-22T02:21:58.354Z,2.23
2019-02-22T02:24:25.677Z,2.17
2019-02-22T02:26:53.014Z,2.12
2019-02-22T02:29:20.393Z,2.15
2019-02-22T02:31:47.752Z,2.42
2019-02-22T02:34:15.085Z,2.29
2019-02-22T02:36:42.421Z,2.15
2019-02-22T02:39:09.900Z,2.32
2019-02-22T02:41:37.333Z,2.57
2019-02-22T02:44:04.683Z,2.47
2019-02-22T02:46:32.013Z,2.13
2019-02-22T02:48:59.351Z,2.03
2019-02-22T02:51:26.696Z,2.40
2019-02-22T02:53:54.064Z,2.47
2019-02-22T02:56:21.435Z,2.22
2019-02-22T02:58:48.813Z,2.09
2019-02-22T03:01:16.243Z,2.05
2019-02-22T03:03:43.575Z,2.00
2019-02-22T03:06:48.632Z,2.01
2019-02-22T03:09:15.933Z,1.94
2019-02-22T03:11:43.276Z,2.01
2019-02-22T03:14:10.640Z,1.92
2019-02-22T03:16:37.981Z,1.98
2019-02-22T03:19:05.337Z,1.97
2019-02-22T03:21:32.725Z,2.33
2019-02-22T03:24:00.118Z,2.01
2019-02-22T03:26:27.434Z,2.01
2019-02-22T03:28:54.813Z,1.96
2019-02-22T03:31:22.354Z,1.97
2019-02-22T03:33:49.739Z,1.90
2019-02-22T03:36:17.114Z,2.08
2019-02-22T03:38:44.413Z,2.19
2019-02-22T03:41:11.773Z,2.06
2019-02-22T03:43:39.133Z,2.08
2019-02-22T03:46:06.434Z,2.12
2019-02-22T03:48:33.834Z,2.17
2019-02-22T03:51:01.172Z,2.11
2019-02-22T03:53:35.641Z,2.08
2019-02-22T03:56:02.994Z,2.04
2019-02-22T03:58:30.458Z,2.03
2019-02-22T04:00:57.814Z,2.01
2019-02-22T04:03:25.171Z,2.01
2019-02-22T04:05:52.537Z,2.00
2019-02-22T04:08:19.942Z,1.87
2019-02-22T04:10:47.257Z,1.76
2019-02-22T04:13:14.594Z,1.72
2019-02-22T04:15:42.074Z,1.79
2019-02-22T04:18:09.461Z,1.82
2019-02-22T04:20:36.837Z,2.06
2019-02-22T04:23:04.195Z,1.93
2019-02-22T04:25:31.577Z,1.96
2019-02-22T04:27:58.954Z,1.91
2019-02-22T04:30:26.263Z,1.97
2019-02-22T04:32:53.659Z,2.22
2019-02-22T04:35:21.055Z,1.84
2019-02-22T04:37:48.424Z,1.77
2019-02-22T04:40:15.773Z,1.98
2019-02-22T04:42:43.112Z,1.92
2019-02-22T04:45:10.503Z,1.85
2019-02-22T04:47:37.854Z,1.83
2019-02-22T04:50:06.146Z,1.74
2019-02-22T04:52:33.552Z,1.79
2019-02-22T04:55:00.883Z,1.86
2019-02-22T04:57:31.433Z,1.73
2019-02-22T04:59:58.775Z,1.75
2019-02-22T05:02:26.133Z,2.02
2019-02-22T05:04:53.479Z,1.96
2019-02-22T05:07:20.853Z,1.83
2019-02-22T05:09:48.263Z,1.81
2019-02-22T05:12:15.594Z,1.88
2019-02-22T05:14:42.996Z,1.72
2019-02-22T05:17:10.365Z,1.76
2019-02-22T05:19:37.674Z,2.07
2019-02-22T05:22:05.114Z,2.04
2019-02-22T05:24:32.465Z,1.82
2019-02-22T05:26:59.852Z,1.92
2019-02-22T05:29:27.174Z,1.89
2019-02-22T05:31:54.535Z,1.84
2019-02-22T05:34:21.891Z,1.85
2019-02-22T05:36:49.232Z,2.03
2019-02-22T05:39:19.386Z,2.17
2019-02-22T05:41:45.838Z,1.89
2019-02-22T05:44:13.173Z,1.78
2019-02-22T05:46:40.748Z,2.01
2019-02-22T05:49:08.076Z,1.95
2019-02-22T05:51:35.414Z,1.42
2019-02-22T05:54:02.789Z,1.63
2019-02-22T05:56:30.186Z,1.65
2019-02-22T05:58:57.557Z,1.49
2019-02-22T06:01:25.014Z,1.60
2019-02-22T06:03:52.374Z,1.63
2019-02-22T06:06:19.713Z,2.17
2019-02-22T06:08:47.359Z,1.70
2019-02-22T06:11:15.106Z,1.58
2019-02-22T06:13:42.514Z,1.77
2019-02-22T06:16:09.860Z,1.91
2019-02-22T06:18:37.199Z,1.80
2019-02-22T06:21:04.668Z,1.70
2019-02-22T06:23:32.056Z,1.79
2019-02-22T06:25:59.480Z,2.03
2019-02-22T06:28:27.007Z,1.89
2019-02-22T06:30:54.547Z,1.82
2019-02-22T06:33:21.954Z,1.74
2019-02-22T06:35:49.320Z,1.80
2019-02-22T06:38:16.654Z,1.93
2019-02-22T06:40:44.015Z,1.94
2019-02-22T06:43:11.393Z,1.96
2019-02-22T06:45:38.786Z,1.78
2019-02-22T06:48:06.101Z,1.79
2019-02-22T06:50:33.989Z,2.14
2019-02-22T06:53:01.593Z,2.02
2019-02-22T06:55:30.064Z,1.82
2019-02-22T06:57:57.414Z,1.80
2019-02-22T07:00:24.794Z,1.92
2019-02-22T07:02:52.807Z,2.10
2019-02-22T07:05:20.194Z,2.16
2019-02-22T07:07:47.514Z,1.91
2019-02-22T07:10:14.876Z,1.90
2019-02-22T07:12:56.193Z,2.09
2019-02-22T07:15:14.823Z,2.01
2019-02-22T07:17:42.153Z,2.03
2019-02-22T07:20:10.233Z,2.12
2019-02-22T07:22:37.554Z,2.16
2019-02-22T07:25:06.094Z,2.15
2019-02-22T07:27:33.476Z,2.12
2019-02-22T07:30:00.793Z,2.20
2019-02-22T07:32:28.218Z,2.24
2019-02-22T07:34:55.559Z,2.12
2019-02-22T07:37:22.874Z,2.08
2019-02-22T07:39:50.233Z,2.05
2019-02-22T07:42:17.565Z,2.20
2019-02-22T07:44:44.955Z,2.14
2019-02-22T07:47:12.294Z,2.28
2019-02-22T07:49:39.736Z,2.51
2019-02-22T07:52:07.130Z,2.36
2019-02-22T07:54:34.473Z,2.56
2019-02-22T07:57:01.779Z,2.25
2019-02-22T07:59:29.101Z,2.39
2019-02-22T08:01:56.427Z,2.38
2019-02-22T08:04:23.817Z,2.52
2019-02-22T08:06:51.895Z,2.35
2019-02-22T08:09:19.233Z,2.28
2019-02-22T08:11:47.522Z,2.46
2019-02-22T08:14:15.353Z,2.35
2019-02-22T08:16:42.684Z,2.57
2019-02-22T08:19:11.266Z,2.46
2019-02-22T08:21:38.670Z,2.52
2019-02-22T08:24:05.993Z,2.52
2019-02-22T08:26:33.324Z,2.44
2019-02-22T08:29:00.673Z,2.45
2019-02-22T08:31:28.008Z,2.20
2019-02-22T08:33:57.182Z,2.30
2019-02-22T08:36:24.713Z,2.56
2019-02-22T08:38:52.055Z,2.71
2019-02-22T08:41:19.426Z,2.62
2019-02-22T08:43:46.773Z,2.17
2019-02-22T08:46:14.133Z,2.42
2019-02-22T08:48:41.493Z,2.33
2019-02-22T08:51:08.833Z,2.00
2019-02-22T08:53:36.173Z,2.18
2019-02-22T08:56:03.494Z,2.29
2019-02-22T08:58:30.839Z,2.56
2019-02-22T09:00:58.216Z,2.57
2019-02-22T09:03:25.536Z,2.74
2019-02-22T09:05:52.894Z,2.76
2019-02-22T09:08:20.273Z,2.40
2019-02-22T09:10:59.667Z,2.59
2019-02-22T09:13:17.253Z,2.56
2019-02-22T09:15:44.615Z,2.75
2019-02-22T09:18:11.976Z,2.98
2019-02-22T09:20:39.332Z,2.96
2019-02-22T09:23:07.692Z,2.47
2019-02-22T09:25:35.352Z,2.72
2019-02-22T09:28:02.676Z,2.70
2019-02-22T09:30:30.033Z,2.94
2019-02-22T09:32:57.352Z,2.97
2019-02-22T09:35:24.736Z,3.04
2019-02-22T09:37:52.114Z,2.98
2019-02-22T09:40:19.424Z,3.00
2019-02-22T09:42:46.796Z,3.20
2019-02-22T09:45:14.148Z,3.23
2019-02-22T09:47:41.564Z,3.29
2019-02-22T09:50:10.195Z,3.47
2019-02-22T09:52:37.513Z,3.38
2019-02-22T09:55:06.773Z,3.27
2019-02-22T09:57:34.133Z,3.40
2019-02-22T10:00:01.454Z,3.32
2019-02-22T10:02:28.848Z,3.23
2019-02-22T10:04:56.198Z,3.59
2019-02-22T10:07:23.553Z,3.62
2019-02-22T10:09:50.953Z,3.99
2019-02-22T10:12:18.254Z,3.74
2019-02-22T10:14:45.614Z,3.97
2019-02-22T10:17:12.993Z,4.09
2019-02-22T10:19:40.317Z,4.04
2019-02-22T10:22:07.655Z,4.01
2019-02-22T10:24:35.013Z,3.74
2019-02-22T10:27:02.371Z,3.91
2019-02-22T10:29:29.774Z,3.98
2019-02-22T10:31:57.131Z,4.01
2019-02-22T10:34:24.477Z,4.19
2019-02-22T10:36:51.867Z,4.31
2019-02-22T10:39:19.207Z,4.28
2019-02-22T10:41:46.574Z,4.48
2019-02-22T10:44:17.684Z,4.19
2019-02-22T10:46:43.234Z,4.46
2019-02-22T10:49:10.616Z,4.65
2019-02-22T10:51:38.013Z,4.67
2019-02-22T10:54:05.375Z,4.42
2019-02-22T10:56:32.735Z,4.34
2019-02-22T10:59:00.155Z,4.45
2019-02-22T11:01:27.493Z,4.65
2019-02-22T11:03:56.825Z,4.76
2019-02-22T11:06:24.174Z,4.48
2019-02-22T11:08:51.495Z,4.66
2019-02-22T11:11:18.842Z,4.73
2019-02-22T11:13:46.216Z,4.76
2019-02-22T11:16:13.573Z,4.36
2019-02-22T11:18:40.915Z,4.51
2019-02-22T11:21:08.267Z,4.61
2019-02-22T11:23:35.618Z,4.36
2019-02-22T11:26:02.932Z,4.10
2019-02-22T11:28:30.279Z,4.12
2019-02-22T11:30:57.636Z,4.11
2019-02-22T11:33:25.827Z,4.26
2019-02-22T11:35:53.194Z,4.18
2019-02-22T11:38:20.573Z,4.48
2019-02-22T11:40:48.120Z,4.59
2019-02-22T11:43:15.487Z,4.64
2019-02-22T11:45:42.855Z,4.64
2019-02-22T11:48:10.216Z,4.72
2019-02-22T11:50:37.579Z,4.50
2019-02-22T11:53:05.115Z,4.68
2019-02-22T11:55:32.509Z,4.85
2019-02-22T11:57:59.881Z,5.03
2019-02-22T12:00:29.473Z,4.78
2019-02-22T12:02:56.815Z,4.97
2019-02-22T12:05:24.208Z,5.19
2019-02-22T12:07:51.619Z,5.12
2019-02-22T12:10:18.969Z,5.58
2019-02-22T12:12:46.389Z,5.55
2019-02-22T12:15:13.887Z,6.03
2019-02-22T12:17:41.312Z,5.84
2019-02-22T12:20:08.947Z,5.67
2019-02-22T12:22:36.353Z,5.57
2019-02-22T12:25:03.854Z,4.89
2019-02-22T12:27:31.298Z,5.31
2019-02-22T12:29:58.661Z,5.76
2019-02-22T12:32:26.037Z,5.00
2019-02-22T12:34:54.060Z,5.10
2019-02-22T12:37:21.525Z,4.95
2019-02-22T12:39:49.166Z,5.08
2019-02-22T12:42:16.513Z,5.42
2019-02-22T12:44:43.895Z,5.44
2019-02-22T12:47:11.333Z,5.17
2019-02-22T12:49:40.312Z,5.28
2019-02-22T12:52:07.828Z,5.52
2019-02-22T12:54:35.208Z,5.76
2019-02-22T12:57:02.611Z,5.43
2019-02-22T12:59:30.168Z,5.58
2019-02-22T13:01:57.550Z,5.69
2019-02-22T13:04:24.919Z,5.47
2019-02-22T13:06:52.369Z,5.49
2019-02-22T13:09:19.773Z,5.64
2019-02-22T13:11:47.352Z,4.91
2019-02-22T13:14:14.857Z,5.07
2019-02-22T13:16:42.395Z,5.18
2019-02-22T13:19:09.845Z,4.92
2019-02-22T13:21:37.380Z,5.31
2019-02-22T13:24:04.854Z,5.16
2019-02-22T13:26:32.318Z,5.16
2019-02-22T13:28:59.873Z,5.09
2019-02-22T13:31:30.364Z,5.39
2019-02-22T13:33:56.655Z,5.00
2019-02-22T13:36:24.245Z,5.29
2019-02-22T13:38:51.735Z,5.55
2019-02-22T13:41:19.279Z,5.15
2019-02-22T13:43:47.089Z,5.49
2019-02-22T13:46:15.911Z,5.28
2019-02-22T13:48:43.497Z,4.86
2019-02-22T13:51:11.032Z,5.24
2019-02-22T13:53:38.394Z,5.66
2019-02-22T13:56:05.770Z,5.21
2019-02-22T13:58:33.313Z,5.11
2019-02-22T14:01:00.948Z,5.14
2019-02-22T14:03:28.569Z,4.97
2019-02-22T14:05:56.179Z,5.63
2019-02-22T14:08:23.907Z,5.12
2019-02-22T14:10:51.514Z,5.05
2019-02-22T14:13:19.032Z,5.15
2019-02-22T14:15:46.802Z,5.21
2019-02-22T14:18:14.455Z,4.93
2019-02-22T14:20:42.087Z,4.62
2019-02-22T14:23:09.824Z,4.89
2019-02-22T14:25:37.514Z,5.28
2019-02-22T14:28:05.078Z,5.29
2019-02-22T14:30:32.635Z,5.43
2019-02-22T14:33:00.054Z,5.27
2019-02-22T14:35:27.668Z,5.03
2019-02-22T14:37:55.701Z,4.76
2019-02-22T14:40:23.667Z,4.90
2019-02-22T14:42:51.266Z,5.07
2019-02-22T14:45:19.023Z,5.12
2019-02-22T14:47:47.883Z,4.78
2019-02-22T14:50:16.744Z,4.77
2019-02-22T14:52:44.469Z,4.56
2019-02-22T14:55:12.221Z,5.15
2019-02-22T14:57:40.090Z,4.85
2019-02-22T15:00:11.213Z,4.79
2019-02-22T15:02:38.843Z,5.16
2019-02-22T15:05:09.160Z,6.24
2019-02-22T15:07:36.856Z,5.44
2019-02-22T15:10:05.353Z,5.31
2019-02-22T15:12:33.023Z,5.44
2019-02-22T15:15:00.701Z,5.45
2019-02-22T15:17:50.578Z,5.53
2019-02-22T15:20:18.215Z,5.62
2019-02-22T15:22:46.195Z,6.10
2019-02-22T15:25:13.993Z,5.73
2019-02-22T15:27:41.798Z,5.33
2019-02-22T15:30:09.805Z,4.85
2019-02-22T15:32:37.384Z,4.51
2019-02-22T15:35:07.207Z,4.68
2019-02-22T15:37:34.973Z,4.54
2019-02-22T15:40:02.903Z,4.95
2019-02-22T15:42:30.567Z,4.79
2019-02-22T15:44:58.341Z,4.64
2019-02-22T15:47:26.159Z,4.75
2019-02-22T15:49:54.020Z,4.91
2019-02-22T15:52:21.729Z,4.95
2019-02-22T15:54:50.472Z,4.85
2019-02-22T15:57:18.133Z,4.87
2019-02-22T15:59:45.984Z,4.83
2019-02-22T16:02:13.983Z,4.83
2019-02-22T16:04:48.451Z,4.91
2019-02-22T16:07:16.338Z,4.63
2019-02-22T16:09:44.133Z,4.47
2019-02-22T16:12:12.097Z,4.36
2019-02-22T16:14:40.070Z,4.45
2019-02-22T16:17:07.993Z,4.57
2019-02-22T16:19:35.828Z,4.42
2019-02-22T16:22:03.765Z,4.56
2019-02-22T16:24:31.551Z,4.27
2019-02-22T16:27:02.494Z,4.43
2019-02-22T16:29:31.816Z,4.27
2019-02-22T16:31:59.893Z,6.05
2019-02-22T16:34:27.991Z,4.95
2019-02-22T16:36:56.782Z,4.76
2019-02-22T16:39:24.820Z,4.64
2019-02-22T16:41:52.804Z,4.65
2019-02-22T16:44:20.826Z,4.40
2019-02-22T16:46:48.804Z,4.49
2019-02-22T16:49:16.996Z,4.82
2019-02-22T16:51:44.980Z,4.42
2019-02-22T16:54:12.888Z,4.26
2019-02-22T16:56:41.345Z,4.13
2019-02-22T16:59:09.301Z,4.41
2019-02-22T17:01:37.111Z,4.40
2019-02-22T17:04:05.218Z,4.58
2019-02-22T17:06:33.179Z,4.37
2019-02-22T17:09:01.146Z,4.73
2019-02-22T17:11:28.988Z,4.91
2019-02-22T17:13:57.077Z,4.57
2019-02-22T17:16:24.952Z,4.21
2019-02-22T17:18:52.855Z,4.38
2019-02-22T17:21:21.100Z,4.67
2019-02-22T17:23:49.993Z,4.49
2019-02-22T17:26:18.133Z,4.10
2019-02-22T17:28:46.172Z,3.89
2019-02-22T17:31:14.189Z,3.81
2019-02-22T17:33:42.547Z,3.68
2019-02-22T17:36:10.632Z,3.92
2019-02-22T17:38:38.637Z,3.80
2019-02-22T17:41:06.695Z,4.85
2019-02-22T17:43:34.688Z,4.12
2019-02-22T17:46:02.734Z,3.88
2019-02-22T17:48:30.724Z,3.65
2019-02-22T17:50:58.778Z,3.54
2019-02-22T17:53:26.727Z,3.57
2019-02-22T17:55:54.657Z,3.81
2019-02-22T17:58:24.699Z,3.99
2019-02-22T18:00:52.569Z,3.89
2019-02-22T18:03:20.422Z,4.03
2019-02-22T18:05:48.385Z,4.26
2019-02-22T18:08:16.009Z,3.81
2019-02-22T18:10:43.857Z,3.84
2019-02-22T18:13:11.810Z,3.79
2019-02-22T18:15:41.814Z,3.56
2019-02-22T18:18:09.760Z,3.48
2019-02-22T18:20:37.996Z,3.41
2019-02-22T18:23:05.934Z,3.40
2019-02-22T18:25:33.930Z,3.33
2019-02-22T18:28:01.766Z,3.24
2019-02-22T18:30:29.794Z,3.21
2019-02-22T18:32:57.609Z,3.18
2019-02-22T18:35:25.469Z,3.09
2019-02-22T18:37:53.637Z,3.27
2019-02-22T18:40:21.653Z,3.22
2019-02-22T18:42:49.593Z,3.17
2019-02-22T18:45:17.590Z,3.12
2019-02-22T18:47:45.574Z,3.18
2019-02-22T18:50:13.583Z,3.12
2019-02-22T18:52:41.453Z,3.40
2019-02-22T18:55:09.409Z,3.76
2019-02-22T18:57:37.356Z,3.67
2019-02-22T19:00:07.864Z,3.49
2019-02-22T19:02:36.579Z,3.49
2019-02-22T19:05:04.788Z,3.43
2019-02-22T19:07:34.010Z,3.52
2019-02-22T19:10:02.420Z,3.49
2019-02-22T19:12:30.372Z,3.73
2019-02-22T19:14:58.246Z,3.45
2019-02-22T19:17:30.332Z,3.59
2019-02-22T19:19:56.072Z,3.73
2019-02-22T19:22:24.036Z,3.52
2019-02-22T19:24:52.444Z,3.20
2019-02-22T19:27:20.401Z,3.31
2019-02-22T19:29:48.250Z,3.34
2019-02-22T19:32:16.283Z,3.33
2019-02-22T19:34:44.215Z,3.37
2019-02-22T19:37:12.063Z,3.62
2019-02-22T19:39:40.592Z,3.81
2019-02-22T19:42:08.609Z,3.64
2019-02-22T19:44:36.437Z,3.26
2019-02-22T19:47:04.463Z,3.49
2019-02-22T19:49:32.421Z,3.55
2019-02-22T19:52:00.999Z,3.50
2019-02-22T19:54:29.283Z,3.44
2019-02-22T19:56:57.237Z,3.55
2019-02-22T19:59:25.014Z,3.60
2019-02-22T20:01:53.084Z,3.17
2019-02-22T20:04:21.136Z,3.30
2019-02-22T20:06:51.494Z,3.40
2019-02-22T20:09:19.644Z,4.27
2019-02-22T20:11:49.967Z,3.69
2019-02-22T20:14:17.909Z,3.34
2019-02-22T20:16:45.803Z,3.18
2019-02-22T20:19:13.641Z,3.13
2019-02-22T20:21:41.659Z,3.57
2019-02-22T20:24:10.771Z,3.31
2019-02-22T20:26:38.814Z,3.22
2019-02-22T20:29:06.799Z,2.87
2019-02-22T20:31:34.745Z,3.01
2019-02-22T20:34:02.855Z,3.15
2019-02-22T20:36:30.804Z,3.30
2019-02-22T20:38:58.766Z,3.29
2019-02-22T20:41:27.212Z,2.85
2019-02-22T20:43:55.917Z,3.19
2019-02-22T20:46:23.841Z,3.06
2019-02-22T20:49:00.483Z,2.70
2019-02-22T20:51:22.549Z,2.55
2019-02-22T20:53:50.442Z,2.47
2019-02-22T20:56:18.430Z,2.78
2019-02-22T20:58:46.388Z,2.59
2019-02-22T21:01:15.167Z,2.77
2019-02-22T21:03:43.190Z,2.49
2019-02-22T21:06:12.325Z,2.62
2019-02-22T21:08:40.420Z,2.62
2019-02-22T21:11:08.511Z,3.08
2019-02-22T21:13:36.409Z,3.11
2019-02-22T21:16:04.294Z,3.03
2019-02-22T21:18:31.973Z,3.21
2019-02-22T21:20:59.922Z,3.22
2019-02-22T21:23:27.867Z,3.09
2019-02-22T21:25:55.854Z,3.11
2019-02-22T21:28:23.682Z,2.82
2019-02-22T21:30:51.695Z,2.69
2019-02-22T21:33:19.665Z,2.81
2019-02-22T21:35:47.499Z,2.80
2019-02-22T21:38:15.178Z,2.75
2019-02-22T21:40:42.991Z,2.68
2019-02-22T21:43:11.674Z,2.78
2019-02-22T21:45:39.569Z,2.91
2019-02-22T21:48:07.275Z,2.95
2019-02-22T21:50:35.015Z,2.72
2019-02-22T21:53:02.664Z,2.75
2019-02-22T21:55:30.485Z,2.69
2019-02-22T21:57:58.270Z,2.64
2019-02-22T22:00:26.113Z,2.66
2019-02-22T22:02:53.829Z,2.63
2019-02-22T22:05:21.395Z,2.62
2019-02-22T22:07:48.967Z,2.65
2019-02-22T22:10:16.517Z,2.78
2019-02-22T22:12:44.010Z,2.67
2019-02-22T22:15:11.978Z,2.72
2019-02-22T22:17:39.411Z,2.67
2019-02-22T22:20:06.968Z,2.74
2019-02-22T22:22:34.459Z,2.61
2019-02-22T22:25:01.892Z,2.57
2019-02-22T22:27:29.313Z,2.61
2019-02-22T22:29:56.675Z,2.71
2019-02-22T22:32:24.105Z,2.72
2019-02-22T22:34:51.450Z,2.56
2019-02-22T22:37:18.847Z,2.64
2019-02-22T22:39:46.274Z,2.94
2019-02-22T22:42:13.654Z,2.89
2019-02-22T22:44:41.158Z,2.96
2019-02-22T22:47:08.530Z,2.85
2019-02-22T22:49:35.909Z,2.75
2019-02-22T22:52:03.326Z,2.90
2019-02-22T22:54:30.664Z,2.91
2019-02-22T22:56:58.013Z,2.95
2019-02-22T22:59:25.393Z,2.89
2019-02-22T23:01:54.564Z,3.04
2019-02-22T23:04:21.918Z,3.04
2019-02-22T23:06:49.412Z,3.09
2019-02-22T23:09:18.620Z,3.27
2019-02-22T23:11:45.973Z,3.49
2019-02-22T23:14:13.325Z,3.36
2019-02-22T23:16:40.665Z,3.42
2019-02-22T23:19:08.025Z,3.92
2019-02-22T23:21:35.432Z,3.79
2019-02-22T23:24:02.776Z,3.95
2019-02-22T23:26:30.155Z,3.66
2019-02-22T23:28:57.592Z,3.94
2019-02-22T23:31:24.914Z,4.07
2019-02-22T23:33:52.252Z,3.99
2019-02-22T23:36:19.648Z,3.77
2019-02-22T23:38:47.028Z,4.12
2019-02-22T23:41:14.377Z,4.38
2019-02-22T23:43:41.774Z,4.49
2019-02-22T23:46:09.232Z,4.21
2019-02-22T23:48:36.592Z,4.08
2019-02-22T23:51:04.026Z,3.63
2019-02-22T23:53:31.373Z,3.69
2019-02-22T23:55:58.714Z,3.54
2019-02-22T23:58:26.088Z,3.26
